createdAt,value
2022-09-23T00:01:24.128Z,6.75
2022-09-23T00:04:07.150Z,6.65
2022-09-23T00:06:50.153Z,6.67
2022-09-23T00:09:33.479Z,6.71
2022-09-23T00:12:17.050Z,6.67
2022-09-23T00:15:00.071Z,6.57
2022-09-23T00:17:45.231Z,6.59
2022-09-23T00:20:28.461Z,6.56
2022-09-23T00:23:11.429Z,6.54
2022-09-23T00:25:57.758Z,6.57
2022-09-23T00:28:41.207Z,6.62
2022-09-23T00:31:27.408Z,6.59
2022-09-23T00:34:12.485Z,6.56
2022-09-23T00:36:55.968Z,6.58
2022-09-23T00:39:39.178Z,6.50
2022-09-23T00:42:23.797Z,6.67
2022-09-23T00:45:12.131Z,6.63
2022-09-23T00:47:58.102Z,6.67
2022-09-23T00:50:45.162Z,6.68
2022-09-23T00:53:29.055Z,6.65
2022-09-23T00:56:13.219Z,6.60
2022-09-23T00:58:56.332Z,6.44
2022-09-23T01:01:40.251Z,6.50
2022-09-23T01:04:24.663Z,6.50
2022-09-23T01:07:09.050Z,6.44
2022-09-23T01:09:52.288Z,6.47
2022-09-23T01:12:48.931Z,6.47
2022-09-23T01:15:40.634Z,6.48
2022-09-23T01:18:33.249Z,6.44
2022-09-23T01:21:29.460Z,6.35
2022-09-23T01:24:47.162Z,6.42
2022-09-23T01:27:59.110Z,6.23
2022-09-23T01:30:49.736Z,6.12
2022-09-23T01:33:39.586Z,5.99
2022-09-23T01:36:27.635Z,6.03
2022-09-23T01:39:18.466Z,6.01
2022-09-23T01:42:04.047Z,5.99
2022-09-23T01:44:52.603Z,5.96
2022-09-23T01:47:41.344Z,5.97
2022-09-23T01:50:47.681Z,5.99
2022-09-23T01:53:39.172Z,5.94
2022-09-23T01:56:26.976Z,5.96
2022-09-23T01:59:16.114Z,6.02
2022-09-23T02:02:05.735Z,5.90
2022-09-23T02:04:55.646Z,5.83
2022-09-23T02:07:42.858Z,5.88
2022-09-23T02:10:32.216Z,5.79
2022-09-23T02:13:19.380Z,5.75
2022-09-23T02:16:08.712Z,5.80
2022-09-23T02:18:56.961Z,5.90
2022-09-23T02:21:44.854Z,5.86
2022-09-23T02:24:31.270Z,5.89
2022-09-23T02:27:24.590Z,5.86
2022-09-23T02:30:12.300Z,5.76
2022-09-23T02:33:00.082Z,5.72
2022-09-23T02:35:50.338Z,5.75
2022-09-23T02:38:39.117Z,5.81
2022-09-23T02:41:29.341Z,5.65
2022-09-23T02:44:15.830Z,5.63
2022-09-23T02:46:58.902Z,5.61
2022-09-23T02:49:42.219Z,5.63
2022-09-23T02:52:25.773Z,5.65
2022-09-23T02:55:13.428Z,5.65
2022-09-23T02:57:56.474Z,5.63
2022-09-23T03:00:51.284Z,5.65
2022-09-23T03:03:43.063Z,5.51
2022-09-23T03:06:30.561Z,5.44
2022-09-23T03:09:21.446Z,5.49
2022-09-23T03:12:15.764Z,5.42
2022-09-23T03:15:06.037Z,5.53
2022-09-23T03:17:57.427Z,5.51
2022-09-23T03:20:46.380Z,5.55
2022-09-23T03:23:35.784Z,5.52
2022-09-23T03:26:23.478Z,5.47
2022-09-23T03:29:11.527Z,5.42
2022-09-23T03:31:56.157Z,5.44
2022-09-23T03:34:43.154Z,5.47
2022-09-23T03:37:31.372Z,5.45
2022-09-23T03:40:19.412Z,5.43
2022-09-23T03:43:04.579Z,5.48
2022-09-23T03:45:49.180Z,5.49
2022-09-23T03:48:32.266Z,5.49
2022-09-23T03:51:22.847Z,5.40
2022-09-23T03:54:06.247Z,5.43
2022-09-23T03:56:49.764Z,5.31
2022-09-23T03:59:32.949Z,5.35
2022-09-23T04:02:17.956Z,5.27
2022-09-23T04:05:01.123Z,5.29
2022-09-23T04:07:44.127Z,5.15
2022-09-23T04:10:27.091Z,5.29
2022-09-23T04:13:10.111Z,5.33
2022-09-23T04:15:53.101Z,5.40
2022-09-23T04:18:37.499Z,5.39
2022-09-23T04:21:20.622Z,5.33
2022-09-23T04:24:03.624Z,5.26
2022-09-23T04:26:46.667Z,5.35
2022-09-23T04:29:29.765Z,5.34
2022-09-23T04:32:12.739Z,5.36
2022-09-23T04:34:57.454Z,5.26
2022-09-23T04:37:40.475Z,5.22
2022-09-23T04:40:23.462Z,5.18
2022-09-23T04:43:09.485Z,5.27
2022-09-23T04:46:01.613Z,5.36
2022-09-23T04:48:45.090Z,5.38
2022-09-23T04:51:30.044Z,5.55
2022-09-23T04:54:14.607Z,5.68
2022-09-23T04:56:57.603Z,5.67
2022-09-23T04:59:41.413Z,6.00
2022-09-23T05:02:24.822Z,6.22
2022-09-23T05:05:08.619Z,6.33
2022-09-23T05:07:56.177Z,6.37
2022-09-23T05:10:39.193Z,6.53
2022-09-23T05:13:22.578Z,6.78
2022-09-23T05:16:09.296Z,6.77
2022-09-23T05:18:54.392Z,6.98
2022-09-23T05:21:37.852Z,7.15
2022-09-23T05:24:23.140Z,7.23
2022-09-23T05:27:07.891Z,7.18
2022-09-23T05:29:52.452Z,7.16
2022-09-23T05:32:35.512Z,7.52
2022-09-23T05:35:18.621Z,7.82
2022-09-23T05:38:01.630Z,8.10
2022-09-23T05:40:46.274Z,8.34
2022-09-23T05:43:30.085Z,8.49
2022-09-23T05:46:14.926Z,8.38
2022-09-23T05:49:02.487Z,8.43
2022-09-23T05:51:49.311Z,8.68
2022-09-23T05:54:32.359Z,9.06
2022-09-23T05:57:16.763Z,9.42
2022-09-23T05:59:59.805Z,10.85
2022-09-23T06:02:42.829Z,14.79
2022-09-23T06:05:28.823Z,18.54
2022-09-23T06:08:12.769Z,21.03
2022-09-23T06:10:56.265Z,21.96
2022-09-23T06:13:41.798Z,24.30
2022-09-23T06:16:24.925Z,25.00
2022-09-23T06:19:08.049Z,25.51
2022-09-23T06:21:51.152Z,27.24
2022-09-23T06:24:34.247Z,28.16
2022-09-23T06:27:17.214Z,29.99
2022-09-23T06:30:01.585Z,29.72
2022-09-23T06:32:49.898Z,31.45
2022-09-23T06:35:33.338Z,32.12
2022-09-23T06:38:16.304Z,32.48
2022-09-23T06:40:59.909Z,33.43
2022-09-23T06:43:42.913Z,33.13
2022-09-23T06:46:28.177Z,34.17
2022-09-23T06:49:13.417Z,32.16
2022-09-23T06:51:56.982Z,33.15
2022-09-23T06:54:40.000Z,32.90
2022-09-23T06:57:22.981Z,33.04
2022-09-23T07:00:07.513Z,33.74
2022-09-23T07:02:52.027Z,35.57
2022-09-23T07:05:35.153Z,33.02
2022-09-23T07:08:21.096Z,33.99
2022-09-23T07:11:06.317Z,32.94
2022-09-23T07:13:49.355Z,33.65
2022-09-23T07:16:33.091Z,33.08
2022-09-23T07:19:17.500Z,34.43
2022-09-23T07:22:00.513Z,35.46
2022-09-23T07:24:44.029Z,36.82
2022-09-23T07:27:28.631Z,35.82
2022-09-23T07:30:22.421Z,36.92
2022-09-23T07:33:27.172Z,37.08
2022-09-23T07:36:17.946Z,32.60
2022-09-23T07:39:03.670Z,35.06
2022-09-23T07:41:46.701Z,33.59
2022-09-23T07:44:32.026Z,33.42
2022-09-23T07:47:15.748Z,31.37
2022-09-23T07:49:58.775Z,34.97
2022-09-23T07:52:43.387Z,32.62
2022-09-23T07:55:26.580Z,33.38
2022-09-23T07:58:09.644Z,32.52
2022-09-23T08:00:53.845Z,27.68
2022-09-23T08:03:37.046Z,31.99
2022-09-23T08:06:20.444Z,33.66
2022-09-23T08:09:06.464Z,36.33
2022-09-23T08:11:50.735Z,38.60
2022-09-23T08:14:33.861Z,37.76
2022-09-23T08:17:17.061Z,38.75
2022-09-23T08:20:00.111Z,35.77
2022-09-23T08:22:43.100Z,38.76
2022-09-23T08:25:27.532Z,34.19
2022-09-23T08:28:10.520Z,34.62
2022-09-23T08:30:54.077Z,37.73
2022-09-23T08:33:37.090Z,40.12
2022-09-23T08:36:20.185Z,42.26
2022-09-23T08:39:03.573Z,41.76
2022-09-23T08:41:59.899Z,36.80
2022-09-23T08:44:50.760Z,30.71
2022-09-23T08:47:43.826Z,35.87
2022-09-23T08:50:37.203Z,39.87
2022-09-23T08:53:25.677Z,31.70
2022-09-23T08:56:14.428Z,32.36
2022-09-23T08:59:05.301Z,36.74
2022-09-23T09:01:51.953Z,39.77
2022-09-23T09:04:44.478Z,37.84
2022-09-23T09:07:36.543Z,39.99
2022-09-23T09:10:24.793Z,37.60
2022-09-23T09:13:20.955Z,38.88
2022-09-23T09:16:36.378Z,40.14
2022-09-23T09:19:47.347Z,36.05
2022-09-23T09:22:48.113Z,38.62
2022-09-23T09:25:47.079Z,37.89
2022-09-23T09:28:36.557Z,38.94
2022-09-23T09:31:30.584Z,41.28
2022-09-23T09:34:24.567Z,39.12
2022-09-23T09:37:13.769Z,42.12
2022-09-23T09:39:57.266Z,40.08
2022-09-23T09:42:42.769Z,36.81
2022-09-23T09:45:36.241Z,35.61
2022-09-23T09:48:32.480Z,37.60
2022-09-23T09:51:21.633Z,39.18
2022-09-23T09:54:23.105Z,38.71
2022-09-23T09:57:08.944Z,40.96
2022-09-23T09:59:52.103Z,41.68
2022-09-23T10:02:37.806Z,41.14
2022-09-23T10:05:28.582Z,40.16
2022-09-23T10:08:24.753Z,40.47
2022-09-23T10:11:15.332Z,40.27
2022-09-23T10:14:09.512Z,39.40
2022-09-23T10:17:05.325Z,40.72
2022-09-23T10:19:51.018Z,43.38
2022-09-23T10:22:39.297Z,46.49
2022-09-23T10:25:26.804Z,43.11
2022-09-23T10:28:34.011Z,42.04
2022-09-23T10:31:25.332Z,41.28
2022-09-23T10:34:25.077Z,44.17
2022-09-23T10:37:18.455Z,44.57
2022-09-23T10:40:32.320Z,45.81
2022-09-23T10:43:46.620Z,47.09
2022-09-23T10:46:41.671Z,46.94
2022-09-23T10:49:47.789Z,46.04
2022-09-23T10:52:43.542Z,47.89
2022-09-23T10:55:50.022Z,46.27
2022-09-23T10:58:50.717Z,45.70
2022-09-23T11:01:44.321Z,44.04
2022-09-23T11:04:48.412Z,43.65
2022-09-23T11:07:37.385Z,42.96
2022-09-23T11:10:55.878Z,43.51
2022-09-23T11:14:17.321Z,44.02
2022-09-23T11:17:16.216Z,41.95
2022-09-23T11:20:11.974Z,38.40
2022-09-23T11:23:23.947Z,32.87
2022-09-23T11:26:26.830Z,28.60
2022-09-23T11:29:23.376Z,25.65
2022-09-23T11:32:28.159Z,24.28
2022-09-23T11:35:20.581Z,23.60
2022-09-23T11:38:09.137Z,22.00
2022-09-23T11:40:58.649Z,20.89
2022-09-23T11:43:45.704Z,20.64
2022-09-23T11:46:38.483Z,20.38
2022-09-23T11:49:31.992Z,20.04
2022-09-23T11:52:19.788Z,19.93
2022-09-23T11:55:18.554Z,19.39
2022-09-23T11:58:22.973Z,19.12
2022-09-23T12:01:15.197Z,19.34
2022-09-23T12:04:18.082Z,19.33
2022-09-23T12:07:09.976Z,19.03
2022-09-23T12:09:59.865Z,19.08
2022-09-23T12:12:52.592Z,19.02
2022-09-23T12:15:50.753Z,19.08
2022-09-23T12:18:47.395Z,18.98
2022-09-23T12:21:51.574Z,19.03
2022-09-23T12:24:48.269Z,18.84
2022-09-23T12:27:38.588Z,18.63
2022-09-23T12:30:24.399Z,18.89
2022-09-23T12:33:17.414Z,18.82
2022-09-23T12:36:06.839Z,18.94
2022-09-23T12:38:53.328Z,18.79
2022-09-23T12:41:38.852Z,18.48
2022-09-23T12:44:32.680Z,18.53
2022-09-23T12:47:38.578Z,18.24
2022-09-23T12:50:54.220Z,18.05
2022-09-23T12:53:55.504Z,17.86
2022-09-23T12:57:02.785Z,17.84
2022-09-23T13:00:00.516Z,17.47
2022-09-23T13:03:08.104Z,17.35
2022-09-23T13:06:11.798Z,16.93
2022-09-23T13:08:56.396Z,16.89
2022-09-23T13:11:41.607Z,16.60
2022-09-23T13:14:27.682Z,16.55
2022-09-23T13:17:26.002Z,16.45
2022-09-23T13:20:36.946Z,16.37
2022-09-23T13:23:24.546Z,16.28
2022-09-23T13:26:13.873Z,16.35
2022-09-23T13:29:00.162Z,16.34
2022-09-23T13:31:44.134Z,16.33
2022-09-23T13:34:31.641Z,16.18
2022-09-23T13:37:22.625Z,16.19
2022-09-23T13:40:17.420Z,16.05
2022-09-23T13:43:04.624Z,15.90
2022-09-23T13:45:47.745Z,16.09
2022-09-23T13:48:30.939Z,16.00
2022-09-23T13:51:26.035Z,15.88
2022-09-23T13:54:31.130Z,15.52
2022-09-23T13:57:26.767Z,15.58
2022-09-23T14:00:21.081Z,15.74
2022-09-23T14:03:06.540Z,15.76
2022-09-23T14:05:50.268Z,15.86
2022-09-23T14:08:34.237Z,15.90
2022-09-23T14:11:18.468Z,15.83
2022-09-23T14:14:09.188Z,15.88
2022-09-23T14:16:55.160Z,15.79
2022-09-23T14:19:38.609Z,16.04
2022-09-23T14:22:26.458Z,16.13
2022-09-23T14:25:15.009Z,16.17
2022-09-23T14:28:00.484Z,15.86
2022-09-23T14:30:46.170Z,15.84
2022-09-23T14:33:34.099Z,15.67
2022-09-23T14:36:36.701Z,15.62
2022-09-23T14:39:19.911Z,15.63
2022-09-23T14:42:06.729Z,15.54
2022-09-23T14:44:51.235Z,15.36
2022-09-23T14:47:36.477Z,15.25
2022-09-23T14:50:39.946Z,15.23
2022-09-23T14:53:46.453Z,15.17
2022-09-23T14:56:42.719Z,15.08
2022-09-23T14:59:28.491Z,15.04
2022-09-23T15:02:32.766Z,14.90
2022-09-23T15:05:19.157Z,14.82
2022-09-23T15:08:04.482Z,14.72
2022-09-23T15:10:48.248Z,14.45
2022-09-23T15:13:33.389Z,14.49
2022-09-23T15:16:17.827Z,14.34
2022-09-23T15:19:02.204Z,14.35
2022-09-23T15:21:51.927Z,14.32
2022-09-23T15:24:45.394Z,14.33
2022-09-23T15:27:33.711Z,14.17
2022-09-23T15:30:18.650Z,14.05
2022-09-23T15:33:02.404Z,14.00
2022-09-23T15:35:50.152Z,14.07
2022-09-23T15:38:33.745Z,13.97
2022-09-23T15:41:20.521Z,13.99
2022-09-23T15:44:09.120Z,13.95
2022-09-23T15:46:54.034Z,14.02
2022-09-23T15:49:40.251Z,14.03
2022-09-23T15:52:23.319Z,13.85
2022-09-23T15:55:16.055Z,13.90
2022-09-23T15:58:01.957Z,13.91
2022-09-23T16:00:45.209Z,13.81
2022-09-23T16:03:29.458Z,13.80
2022-09-23T16:06:13.564Z,13.72
2022-09-23T16:09:04.019Z,13.66
2022-09-23T16:11:49.755Z,13.53
2022-09-23T16:14:34.173Z,13.44
2022-09-23T16:17:18.552Z,13.34
2022-09-23T16:20:02.192Z,13.34
2022-09-23T16:22:50.765Z,13.23
2022-09-23T16:25:35.975Z,13.12
2022-09-23T16:28:20.131Z,12.97
2022-09-23T16:31:05.024Z,12.96
2022-09-23T16:33:52.008Z,12.89
2022-09-23T16:36:37.371Z,12.79
2022-09-23T16:39:22.128Z,12.67
2022-09-23T16:42:05.366Z,12.61
2022-09-23T16:44:51.684Z,12.51
2022-09-23T16:47:36.251Z,12.44
2022-09-23T16:50:22.705Z,12.43
2022-09-23T16:53:06.250Z,12.29
2022-09-23T16:55:49.484Z,12.19
2022-09-23T16:58:32.481Z,12.16
2022-09-23T17:01:34.605Z,12.11
2022-09-23T17:04:20.187Z,12.04
2022-09-23T17:07:05.939Z,12.02
2022-09-23T17:09:51.018Z,11.99
2022-09-23T17:12:35.174Z,11.87
2022-09-23T17:15:18.462Z,11.80
2022-09-23T17:18:01.934Z,11.81
2022-09-23T17:20:46.344Z,11.75
2022-09-23T17:23:31.555Z,11.72
2022-09-23T17:26:15.196Z,11.74
2022-09-23T17:28:59.455Z,11.78
2022-09-23T17:31:42.532Z,11.72
2022-09-23T17:34:25.766Z,11.72
2022-09-23T17:37:10.151Z,11.67
2022-09-23T17:39:53.119Z,11.62
2022-09-23T17:42:41.363Z,11.62
2022-09-23T17:45:24.408Z,11.59
2022-09-23T17:48:07.514Z,11.49
2022-09-23T17:50:57.185Z,11.49
2022-09-23T17:53:44.167Z,11.44
2022-09-23T17:56:29.968Z,11.41
2022-09-23T17:59:13.759Z,11.25
2022-09-23T18:01:56.769Z,11.18
2022-09-23T18:04:39.799Z,11.18
2022-09-23T18:07:22.834Z,11.10
2022-09-23T18:10:09.050Z,11.11
2022-09-23T18:12:52.145Z,11.03
2022-09-23T18:15:36.784Z,10.99
2022-09-23T18:18:19.793Z,11.01
2022-09-23T18:21:03.013Z,10.89
2022-09-23T18:23:45.982Z,10.83
2022-09-23T18:26:30.708Z,10.74
2022-09-23T18:29:15.919Z,10.59
2022-09-23T18:31:59.536Z,10.49
2022-09-23T18:34:42.690Z,10.41
2022-09-23T18:37:25.982Z,10.29
2022-09-23T18:40:14.432Z,10.15
2022-09-23T18:42:59.119Z,10.01
2022-09-23T18:45:42.147Z,9.95
2022-09-23T18:48:42.459Z,9.94
2022-09-23T18:51:28.530Z,9.84
2022-09-23T18:54:11.541Z,9.81
2022-09-23T18:56:54.743Z,9.71
2022-09-23T18:59:40.145Z,9.62
2022-09-23T19:02:23.158Z,9.55
2022-09-23T19:05:06.850Z,9.50
2022-09-23T19:07:49.830Z,9.41
2022-09-23T19:10:32.816Z,9.38
2022-09-23T19:13:15.800Z,9.35
2022-09-23T19:16:04.702Z,9.28
2022-09-23T19:18:47.788Z,9.23
2022-09-23T19:21:31.242Z,9.25
2022-09-23T19:24:19.973Z,9.17
2022-09-23T19:27:03.398Z,9.16
2022-09-23T19:29:47.506Z,9.00
2022-09-23T19:32:33.410Z,9.08
2022-09-23T19:35:16.532Z,9.00
2022-09-23T19:37:59.548Z,9.01
2022-09-23T19:40:45.455Z,9.03
2022-09-23T19:43:30.775Z,9.02
2022-09-23T19:46:13.800Z,8.97
2022-09-23T19:48:58.631Z,8.91
2022-09-23T19:51:44.014Z,8.89
2022-09-23T19:54:27.678Z,8.90
2022-09-23T19:57:10.880Z,8.84
2022-09-23T19:59:54.574Z,8.79
2022-09-23T20:02:37.596Z,8.76
2022-09-23T20:05:22.331Z,8.73
2022-09-23T20:08:05.586Z,8.67
2022-09-23T20:10:49.872Z,8.67
2022-09-23T20:13:33.902Z,8.69
2022-09-23T20:16:18.766Z,8.55
2022-09-23T20:19:04.176Z,8.55
2022-09-23T20:22:09.036Z,8.46
2022-09-23T20:24:52.918Z,8.45
2022-09-23T20:27:35.006Z,8.37
2022-09-23T20:30:18.456Z,8.37
2022-09-23T20:33:01.518Z,8.35
2022-09-23T20:35:44.604Z,8.38
2022-09-23T20:38:29.183Z,8.31
2022-09-23T20:41:12.396Z,8.40
2022-09-23T20:43:56.013Z,8.37
2022-09-23T20:46:41.884Z,8.39
2022-09-23T20:49:27.016Z,8.31
2022-09-23T20:52:10.242Z,8.27
2022-09-23T20:54:54.629Z,8.23
2022-09-23T20:57:37.648Z,8.20
2022-09-23T21:00:20.860Z,8.20
2022-09-23T21:03:03.888Z,8.13
2022-09-23T21:05:48.042Z,8.12
2022-09-23T21:08:31.401Z,8.10
2022-09-23T21:11:17.952Z,8.08
2022-09-23T21:14:01.495Z,8.02
2022-09-23T21:16:44.805Z,8.02
2022-09-23T21:19:28.015Z,7.96
2022-09-23T21:22:12.421Z,7.65
2022-09-23T21:25:26.469Z,7.63
2022-09-23T21:28:01.890Z,7.58
2022-09-23T21:30:48.590Z,7.58
2022-09-23T21:33:36.436Z,7.55
2022-09-23T21:36:19.486Z,7.54
2022-09-23T21:39:03.126Z,7.52
2022-09-23T21:41:46.120Z,7.49
2022-09-23T21:44:30.645Z,7.44
2022-09-23T21:47:13.800Z,7.42
2022-09-23T21:49:56.793Z,7.38
2022-09-23T21:52:40.232Z,7.34
2022-09-23T21:55:23.286Z,7.29
2022-09-23T21:58:06.291Z,7.27
2022-09-23T22:00:50.794Z,7.16
2022-09-23T22:03:33.898Z,7.16
2022-09-23T22:06:21.523Z,7.10
2022-09-23T22:09:08.923Z,6.99
2022-09-23T22:12:09.848Z,7.01
2022-09-23T22:14:52.934Z,7.01
2022-09-23T22:17:37.281Z,7.01
2022-09-23T22:20:20.363Z,6.89
2022-09-23T22:23:03.418Z,6.89
2022-09-23T22:25:46.434Z,6.88
2022-09-23T22:28:53.199Z,6.87
2022-09-23T22:31:54.108Z,6.91
2022-09-23T22:34:49.375Z,6.87
2022-09-23T22:37:35.228Z,6.89
2022-09-23T22:40:18.558Z,6.87
2022-09-23T22:43:02.811Z,6.87
2022-09-23T22:45:50.804Z,6.82
2022-09-23T22:48:33.767Z,6.82
2022-09-23T22:51:18.206Z,6.73
2022-09-23T22:54:01.545Z,6.73
2022-09-23T22:56:44.535Z,6.78
2022-09-23T22:59:27.582Z,6.75
2022-09-23T23:02:10.603Z,6.67
2022-09-23T23:04:56.193Z,6.64
2022-09-23T23:07:40.647Z,6.65
2022-09-23T23:10:24.772Z,6.59
2022-09-23T23:13:07.742Z,6.53
2022-09-23T23:15:50.831Z,6.52
2022-09-23T23:18:35.554Z,6.53
2022-09-23T23:21:19.853Z,6.51
2022-09-23T23:24:05.729Z,6.44
2022-09-23T23:26:49.397Z,6.30
2022-09-23T23:29:32.416Z,6.42
2022-09-23T23:32:15.672Z,6.37
2022-09-23T23:34:58.671Z,6.35
2022-09-23T23:37:41.661Z,6.24
2022-09-23T23:40:27.989Z,6.22
2022-09-23T23:43:11.121Z,6.16
2022-09-23T23:45:54.082Z,6.09
2022-09-23T23:48:38.378Z,6.13
2022-09-23T23:51:21.799Z,6.21
2022-09-23T23:54:05.055Z,6.20
2022-09-23T23:56:49.520Z,6.13
2022-09-23T23:59:34.402Z,6.18
